Time;durP1;ratioP1;P1;durP2;ratioP2;P2;SDS_P1;SDS_P2;PMS_P1;PMS_P2;Temp;Humidity;BMP_temperature;BMP_pressure;BME280_temperature;BME280_humidity;BME280_pressure;Samples;Min_cycle;Max_cycle;Signal;HPM_P1;HPM_P2
2021/08/28 00:01:03;;;;;;;8.13;2.77;;;;;;;15.73;98.95;96347.28;5072820;28;20245;-62
2021/08/28 00:03:29;;;;;;;3.10;2.60;;;;;;;15.79;99.06;96338.31;5072378;28;20588;-65
2021/08/28 00:05:54;;;;;;;6.60;2.60;;;;;;;15.71;98.83;96343.31;5072734;28;20236;-62
2021/08/28 00:08:19;;;;;;;2.50;2.37;;;;;;;15.56;99.42;96338.75;5073040;28;20246;-67
2021/08/28 00:10:45;;;;;;;3.97;2.60;;;;;;;15.55;99.52;96333.69;5072710;28;20166;-62
2021/08/28 00:13:11;;;;;;;4.07;2.70;;;;;;;15.58;100.00;96338.47;5065765;28;20178;-62
2021/08/28 00:15:37;;;;;;;3.27;2.73;;;;;;;15.49;100.00;96340.78;5053047;28;20938;-62
2021/08/28 00:18:02;;;;;;;4.20;2.37;;;;;;;15.54;100.00;96337.41;5072771;28;20170;-65
2021/08/28 00:20:28;;;;;;;4.83;2.50;;;;;;;15.36;100.00;96334.06;5072549;28;20725;-65
2021/08/28 00:22:53;;;;;;;2.57;2.37;;;;;;;15.22;100.00;96335.59;5071319;28;20183;-65
2021/08/28 00:25:19;;;;;;;5.47;2.53;;;;;;;15.17;100.00;96340.03;5072382;28;20194;-62
2021/08/28 00:27:44;;;;;;;3.77;2.17;;;;;;;15.41;100.00;96333.34;5075916;28;20170;-65
2021/08/28 00:30:11;;;;;;;2.60;2.40;;;;;;;15.22;100.00;96338.22;5070290;28;20209;-65
2021/08/28 00:32:37;;;;;;;3.90;2.53;;;;;;;15.19;100.00;96341.41;5055757;28;20583;-63
2021/08/28 00:35:04;;;;;;;5.37;2.47;;;;;;;15.32;100.00;96329.56;5056018;28;20448;-62
2021/08/28 00:37:29;;;;;;;2.97;2.77;;;;;;;15.20;100.00;96342.19;5055921;28;20413;-62
2021/08/28 00:39:55;;;;;;;3.53;3.20;;;;;;;15.19;100.00;96338.75;5055935;28;20413;-65
2021/08/28 00:42:20;;;;;;;3.10;2.80;;;;;;;15.13;100.00;96341.59;5068450;28;20210;-62
2021/08/28 00:44:45;;;;;;;3.03;2.83;;;;;;;15.32;100.00;96337.50;5075422;28;20183;-65
2021/08/28 00:47:20;;;;;;;3.97;3.00;;;;;;;15.06;100.00;96341.03;5075779;28;20232;-63
2021/08/28 00:49:47;;;;;;;2.80;2.60;;;;;;;15.09;100.00;96340.53;5070810;28;20220;-65
2021/08/28 00:52:12;;;;;;;3.20;2.90;;;;;;;15.15;100.00;96336.84;5055739;28;20406;-65
2021/08/28 00:54:38;;;;;;;3.07;2.73;;;;;;;15.26;100.00;96335.88;5055403;28;20422;-62
2021/08/28 00:57:13;;;;;;;3.93;3.57;;;;;;;15.32;100.00;96335.66;5055780;28;20211;-62
2021/08/28 00:59:42;;;;;;;4.00;3.07;;;;;;;15.44;100.00;96327.53;5055632;28;20888;-65
2021/08/28 01:02:09;;;;;;;3.33;3.10;;;;;;;15.72;100.00;96331.66;5059523;28;20854;-62
2021/08/28 01:05:01;;;;;;;3.60;3.07;;;;;;;15.16;100.00;96335.81;5055026;28;20449;-62
2021/08/28 01:07:36;;;;;;;3.37;2.77;;;;;;;15.34;100.00;96327.47;5055533;28;20398;-65
2021/08/28 01:10:05;;;;;;;2.90;2.60;;;;;;;15.06;100.00;96333.88;5055649;28;20794;-62
2021/08/28 01:12:40;;;;;;;3.40;3.10;;;;;;;15.14;100.00;96330.78;5055586;28;20398;-64
2021/08/28 01:15:08;;;;;;;4.83;3.03;;;;;;;15.29;100.00;96330.09;5055454;28;20451;-65
2021/08/28 01:17:35;;;;;;;4.27;2.70;;;;;;;15.19;100.00;96327.34;5071289;28;20432;-62
2021/08/28 01:20:07;;;;;;;3.10;2.80;;;;;;;15.24;100.00;96328.19;5075550;28;20401;-65
2021/08/28 01:22:39;;;;;;;3.17;2.87;;;;;;;15.08;100.00;96333.63;5075394;28;20414;-65
2021/08/28 01:25:06;;;;;;;3.00;2.80;;;;;;;15.01;100.00;96331.22;5067955;28;20793;-65
2021/08/28 01:27:51;;;;;;;3.00;2.80;;;;;;;15.13;100.00;96331.00;5055249;28;20487;-65
2021/08/28 01:30:17;;;;;;;3.13;2.73;;;;;;;15.23;100.00;96331.09;5055490;28;20433;-65
2021/08/28 01:32:43;;;;;;;3.20;2.90;;;;;;;15.13;100.00;96331.81;5054852;28;20495;-65
2021/08/28 01:35:09;;;;;;;4.50;2.90;;;;;;;15.12;100.00;96330.25;5055172;28;20422;-65
2021/08/28 01:37:36;;;;;;;4.53;3.00;;;;;;;14.88;100.00;96329.00;5071273;28;20475;-65
2021/08/28 01:40:04;;;;;;;4.83;3.23;;;;;;;14.79;100.00;96335.00;5073289;28;20417;-61
2021/08/28 01:42:31;;;;;;;4.17;2.97;;;;;;;14.74;100.00;96327.81;5074933;28;20461;-62
2021/08/28 01:44:58;;;;;;;4.30;3.03;;;;;;;15.11;100.00;96320.69;5073201;28;20447;-62
2021/08/28 01:47:26;;;;;;;4.73;3.53;;;;;;;15.09;100.00;96324.66;5074775;28;21006;-62
2021/08/28 01:49:51;;;;;;;5.50;2.63;;;;;;;15.09;100.00;96324.66;5074930;28;20792;-64
2021/08/28 01:52:17;;;;;;;3.53;3.33;;;;;;;15.12;100.00;96324.94;5074704;28;20410;-62
2021/08/28 01:54:43;;;;;;;3.97;3.50;;;;;;;15.17;100.00;96324.97;5070861;28;20244;-65
2021/08/28 01:57:09;;;;;;;3.73;3.43;;;;;;;15.06;100.00;96325.16;5074737;28;20242;-62
2021/08/28 01:59:35;;;;;;;4.47;3.60;;;;;;;14.93;100.00;96320.31;5074642;28;20895;-65
2021/08/28 02:02:01;;;;;;;3.37;3.07;;;;;;;14.84;100.00;96319.19;5074631;28;20455;-61
2021/08/28 02:04:27;;;;;;;3.47;3.17;;;;;;;15.04;100.00;96325.41;5073989;28;20194;-65
2021/08/28 02:07:17;;;;;;;3.67;3.37;;;;;;;15.26;100.00;96322.63;5074545;28;20170;-62
2021/08/28 02:09:53;;;;;;;3.43;3.07;;;;;;;15.40;100.00;96319.31;5058726;28;20425;-62
2021/08/28 02:12:21;;;;;;;4.00;3.60;;;;;;;15.47;100.00;96326.25;5054610;28;20481;-65
2021/08/28 02:15:04;;;;;;;3.97;3.57;;;;;;;15.27;100.00;96316.31;5053873;28;20418;-62
2021/08/28 02:17:30;;;;;;;5.63;4.40;;;;;;;15.24;100.00;96316.78;5070280;28;20401;-65
2021/08/28 02:20:04;;;;;;;4.00;3.70;;;;;;;15.06;100.00;96315.38;5074398;28;20432;-62
2021/08/28 02:22:34;;;;;;;4.83;3.97;;;;;;;15.15;100.00;96313.03;5074214;28;20449;-62
2021/08/28 02:25:07;;;;;;;5.03;4.53;;;;;;;15.12;100.00;96318.84;5073395;28;20494;-62
2021/08/28 02:27:41;;;;;;;7.33;4.63;;;;;;;15.06;100.00;96311.91;5074201;28;20405;-64
2021/08/28 02:30:10;;;;;;;5.10;4.30;;;;;;;14.91;100.00;96314.47;5074033;28;20957;-65
2021/08/28 02:32:37;;;;;;;4.97;4.57;;;;;;;14.80;100.00;96315.44;5073654;28;20436;-63
2021/08/28 02:35:05;;;;;;;5.27;4.70;;;;;;;14.96;100.00;96319.78;5074001;28;20432;-65
2021/08/28 02:37:36;;;;;;;5.70;4.60;;;;;;;15.01;100.00;96323.28;5072211;28;20794;-65
2021/08/28 02:40:06;;;;;;;5.37;4.87;;;;;;;15.04;100.00;96322.75;5053992;28;20410;-65
2021/08/28 02:42:32;;;;;;;6.33;5.77;;;;;;;14.99;100.00;96321.91;5052549;28;20541;-62
2021/08/28 02:45:00;;;;;;;7.50;5.20;;;;;;;14.87;100.00;96316.81;5066114;28;20437;-62
2021/08/28 02:47:26;;;;;;;6.00;4.97;;;;;;;15.04;100.00;96320.09;5073837;28;20412;-65
2021/08/28 02:49:53;;;;;;;6.30;4.77;;;;;;;15.18;100.00;96323.91;5073114;28;20493;-66
2021/08/28 02:52:22;;;;;;;9.20;5.53;;;;;;;15.22;100.00;96321.53;5073809;28;20450;-62
2021/08/28 02:54:49;;;;;;;5.87;5.37;;;;;;;15.15;100.00;96319.13;5073204;28;20444;-65
2021/08/28 02:57:17;;;;;;;6.83;5.50;;;;;;;15.26;100.00;96325.28;5071060;28;20421;-65
2021/08/28 02:59:43;;;;;;;5.80;5.30;;;;;;;15.53;100.00;96325.22;5054958;28;21030;-65
2021/08/28 03:02:09;;;;;;;5.73;5.30;;;;;;;15.81;99.65;96330.91;5056727;28;20548;-62
2021/08/28 03:04:35;;;;;;;6.77;5.80;;;;;;;15.89;98.85;96316.38;5053275;28;20223;-65
2021/08/28 03:07:02;;;;;;;7.83;7.07;;;;;;;15.74;98.49;96314.47;5053512;28;20458;-63
2021/08/28 03:09:28;;;;;;;7.47;6.57;;;;;;;15.82;98.52;96323.75;5053406;28;20839;-62
2021/08/28 03:11:53;;;;;;;7.50;6.70;;;;;;;15.84;98.70;96322.44;5053564;28;20457;-62
2021/08/28 03:14:19;;;;;;;7.43;6.73;;;;;;;15.53;99.58;96315.41;5053025;28;20245;-65
2021/08/28 03:16:47;;;;;;;8.30;7.60;;;;;;;15.50;100.00;96315.94;5063455;28;20167;-65
2021/08/28 03:19:15;;;;;;;9.03;8.13;;;;;;;15.77;99.89;96313.13;5073551;28;20252;-62
2021/08/28 03:21:41;;;;;;;9.23;7.90;;;;;;;16.03;98.34;96310.28;5073394;28;20455;-65
2021/08/28 03:24:09;;;;;;;8.07;7.27;;;;;;;16.08;97.61;96314.81;5072763;28;20512;-63
2021/08/28 03:26:34;;;;;;;9.17;8.27;;;;;;;16.00;97.83;96310.03;5072518;28;20417;-65
2021/08/28 03:29:02;;;;;;;9.07;8.20;;;;;;;15.95;98.01;96313.47;5073316;28;20413;-62
2021/08/28 03:31:28;;;;;;;9.23;8.33;;;;;;;16.07;97.82;96302.66;5073445;28;20696;-62
2021/08/28 03:33:57;;;;;;;9.17;8.37;;;;;;;16.20;97.54;96308.22;5072972;28;20401;-65
2021/08/28 03:36:23;;;;;;;11.83;10.27;;;;;;;16.19;96.02;96308.50;5057261;28;20445;-65
2021/08/28 03:38:48;;;;;;;12.13;10.87;;;;;;;16.10;96.83;96302.91;5054088;28;20909;-65
2021/08/28 03:41:17;;;;;;;10.23;9.13;;;;;;;16.28;96.32;96307.72;5053227;28;20448;-65
2021/08/28 03:43:46;;;;;;;10.77;9.70;;;;;;;16.43;95.26;96304.31;5052736;28;20175;-65
2021/08/28 03:46:13;;;;;;;11.87;10.87;;;;;;;16.40;95.63;96304.81;5052992;28;20436;-62
2021/08/28 03:48:40;;;;;;;13.17;11.87;;;;;;;16.43;94.91;96306.97;5053187;28;20402;-65
2021/08/28 03:51:06;;;;;;;11.10;10.07;;;;;;;16.51;94.98;96305.66;5052975;28;20455;-65
2021/08/28 03:53:31;;;;;;;13.30;11.77;;;;;;;16.60;94.67;96306.72;5070932;28;20561;-65
2021/08/28 03:55:57;;;;;;;13.70;12.17;;;;;;;16.65;94.22;96304.88;5072972;28;20894;-62
2021/08/28 03:58:26;;;;;;;13.10;11.77;;;;;;;16.35;94.28;96312.78;5073139;28;20237;-65
2021/08/28 04:00:52;;;;;;;13.77;11.63;;;;;;;16.38;94.45;96305.09;5073574;28;20201;-62
2021/08/28 04:03:18;;;;;;;15.20;12.77;;;;;;;16.34;94.69;96309.31;5076593;28;20401;-65
2021/08/28 04:05:44;;;;;;;13.67;12.27;;;;;;;16.45;94.53;96308.28;5076696;28;20432;-62
2021/08/28 04:08:10;;;;;;;13.43;11.90;;;;;;;16.25;94.82;96304.81;5059619;28;20167;-65
2021/08/28 04:10:36;;;;;;;13.33;12.03;;;;;;;16.33;95.10;96302.44;5067642;28;20174;-65
2021/08/28 04:13:01;;;;;;;13.53;12.20;;;;;;;16.36;95.05;96304.53;5056270;28;20410;-65
2021/08/28 04:15:27;;;;;;;12.90;11.60;;;;;;;16.29;95.54;96306.66;5071679;28;20187;-65
2021/08/28 04:17:52;;;;;;;13.57;12.27;;;;;;;16.42;95.34;96310.66;5076617;28;20506;-63
2021/08/28 04:20:18;;;;;;;15.10;13.60;;;;;;;16.49;95.00;96305.91;5076844;28;20217;-62
2021/08/28 04:22:43;;;;;;;15.33;13.73;;;;;;;16.33;94.16;96307.72;5075295;28;20529;-63
2021/08/28 04:25:09;;;;;;;13.47;12.10;;;;;;;16.33;95.79;96314.88;5076212;28;20206;-62
2021/08/28 04:27:35;;;;;;;13.87;12.53;;;;;;;16.38;95.05;96307.72;5061449;28;20254;-62
2021/08/28 04:30:00;;;;;;;13.93;12.53;;;;;;;16.39;95.57;96316.50;5056422;28;20444;-66
2021/08/28 04:32:26;;;;;;;14.97;13.37;;;;;;;16.52;95.21;96315.22;5056470;28;20168;-63
2021/08/28 04:34:51;;;;;;;13.83;12.57;;;;;;;16.44;95.21;96314.66;5055869;28;20206;-65
2021/08/28 04:37:17;;;;;;;17.60;13.70;;;;;;;16.55;94.75;96312.03;5070359;28;20175;-62
2021/08/28 04:39:42;;;;;;;14.20;12.70;;;;;;;16.36;94.59;96314.34;5076222;28;20163;-63
2021/08/28 04:42:07;;;;;;;13.93;12.63;;;;;;;16.40;95.54;96312.78;5076348;28;20226;-65
2021/08/28 04:44:33;;;;;;;14.13;12.83;;;;;;;16.51;95.09;96311.75;5075780;28;20198;-62
2021/08/28 04:46:58;;;;;;;14.97;13.47;;;;;;;16.12;96.49;96311.41;5076303;28;20163;-62
2021/08/28 04:49:24;;;;;;;14.30;12.80;;;;;;;16.26;96.08;96317.00;5076169;28;20174;-65
2021/08/28 04:51:49;;;;;;;14.00;12.60;;;;;;;16.30;96.25;96310.91;5062964;28;20630;-62
2021/08/28 04:54:14;;;;;;;14.00;12.60;;;;;;;16.52;95.20;96325.81;5055566;28;20207;-63
2021/08/28 04:56:40;;;;;;;16.47;13.23;;;;;;;16.43;95.55;96321.00;5055841;28;20172;-62
2021/08/28 04:59:05;;;;;;;16.57;14.13;;;;;;;16.47;94.97;96323.94;5055791;28;20585;-62
2021/08/28 05:01:30;;;;;;;17.17;14.40;;;;;;;16.41;94.41;96325.75;5055590;28;20191;-65
2021/08/28 05:03:56;;;;;;;16.83;15.03;;;;;;;16.30;95.25;96328.69;5068720;28;20171;-63
2021/08/28 05:06:21;;;;;;;16.00;14.30;;;;;;;16.49;94.36;96318.41;5075012;28;20273;-65
2021/08/28 05:08:46;;;;;;;17.27;14.23;;;;;;;16.40;95.22;96326.84;5075648;28;20500;-62
2021/08/28 05:11:13;;;;;;;16.90;15.10;;;;;;;16.51;95.00;96325.03;5075629;28;20171;-65
2021/08/28 05:13:39;;;;;;;17.10;14.93;;;;;;;16.43;95.17;96328.19;5074766;28;20201;-62
2021/08/28 05:16:05;;;;;;;14.30;13.00;;;;;;;16.55;94.95;96336.72;5075547;28;20425;-65
2021/08/28 05:18:30;;;;;;;16.03;13.13;;;;;;;16.57;94.78;96337.25;5075708;28;20413;-63
2021/08/28 05:20:56;;;;;;;16.17;14.47;;;;;;;16.55;94.56;96341.22;5065797;28;20461;-66
2021/08/28 05:23:21;;;;;;;17.70;14.70;;;;;;;16.25;94.80;96334.75;5055670;28;20186;-65
2021/08/28 05:25:46;;;;;;;15.67;13.83;;;;;;;16.37;95.39;96343.28;5061071;28;20202;-65
2021/08/28 05:28:12;;;;;;;15.33;13.77;;;;;;;16.40;93.90;96348.06;5075448;28;20166;-65
2021/08/28 05:30:37;;;;;;;16.27;14.57;;;;;;;16.36;94.80;96344.31;5075425;28;20177;-62
2021/08/28 05:33:02;;;;;;;15.13;13.50;;;;;;;16.16;96.79;96341.63;5074775;28;20198;-63
2021/08/28 05:35:28;;;;;;;15.00;13.50;;;;;;;16.19;96.11;96340.31;5073735;28;20191;-62
2021/08/28 05:37:53;;;;;;;15.93;14.23;;;;;;;16.24;95.83;96335.03;5075074;28;20228;-65
2021/08/28 05:40:20;;;;;;;14.50;13.00;;;;;;;16.37;95.71;96343.28;5068719;28;20534;-63
2021/08/28 05:42:46;;;;;;;15.83;14.20;;;;;;;16.15;95.47;96345.34;5055638;28;20172;-63
2021/08/28 05:45:11;;;;;;;14.83;13.40;;;;;;;16.25;95.81;96348.00;5074848;28;20479;-62
2021/08/28 05:47:37;;;;;;;17.03;15.10;;;;;;;16.34;95.21;96353.63;5074994;28;20174;-63
2021/08/28 05:50:04;;;;;;;15.77;14.10;;;;;;;16.43;94.65;96350.16;5074799;28;20171;-66
2021/08/28 05:52:29;;;;;;;15.63;14.10;;;;;;;16.51;94.54;96356.06;5074948;28;20534;-66
2021/08/28 05:54:55;;;;;;;15.10;13.53;;;;;;;16.43;93.99;96355.47;5074282;28;21008;-66
2021/08/28 05:57:20;;;;;;;15.20;13.63;;;;;;;16.46;94.58;96351.50;5074828;28;20234;-62
2021/08/28 05:59:45;;;;;;;16.23;14.30;;;;;;;16.34;94.43;96351.75;5054865;28;20175;-62
2021/08/28 06:02:11;;;;;;;17.93;14.07;;;;;;;16.46;93.92;96344.38;5054659;28;20546;-66
2021/08/28 06:04:37;;;;;;;16.90;13.90;;;;;;;16.41;94.16;96346.22;5073188;28;20596;-66
2021/08/28 06:07:03;;;;;;;14.30;13.00;;;;;;;16.33;93.84;96355.47;5074507;28;20887;-66
2021/08/28 06:09:28;;;;;;;15.00;13.60;;;;;;;16.34;94.84;96354.41;5073131;28;20170;-62
2021/08/28 06:11:55;;;;;;;13.27;11.97;;;;;;;16.38;95.09;96359.97;5074404;28;20167;-66
2021/08/28 06:14:20;;;;;;;12.93;11.73;;;;;;;16.25;95.35;96355.97;5057787;28;20199;-66
2021/08/28 06:16:45;;;;;;;14.93;13.27;;;;;;;16.13;94.00;96354.59;5054222;28;20493;-63
2021/08/28 06:19:11;;;;;;;12.83;11.63;;;;;;;16.25;95.04;96355.97;5054438;28;20198;-63
2021/08/28 06:21:36;;;;;;;13.40;12.20;;;;;;;16.22;96.01;96364.44;5054171;28;20329;-62
2021/08/28 06:24:02;;;;;;;11.50;10.50;;;;;;;16.28;96.01;96344.84;5052810;28;20167;-63
2021/08/28 06:26:27;;;;;;;14.50;13.10;;;;;;;16.28;95.20;96363.41;5060667;28;20163;-66
2021/08/28 06:28:53;;;;;;;12.40;11.30;;;;;;;16.36;95.21;96354.94;5068910;28;20176;-66
2021/08/28 06:31:18;;;;;;;13.50;12.27;;;;;;;16.46;94.72;96360.28;5053943;28;20160;-63
2021/08/28 06:33:44;;;;;;;14.00;12.60;;;;;;;16.56;94.31;96364.03;5053670;28;20163;-63
2021/08/28 06:36:09;;;;;;;13.70;12.47;;;;;;;16.62;93.99;96357.66;5053889;28;20187;-62
2021/08/28 06:38:34;;;;;;;16.23;13.00;;;;;;;16.55;94.72;96363.25;5054134;28;20163;-66
2021/08/28 06:41:02;;;;;;;14.87;13.40;;;;;;;16.68;93.96;96365.38;5053946;28;20187;-66
2021/08/28 06:43:27;;;;;;;16.20;13.23;;;;;;;16.48;93.55;96369.84;5056191;28;20199;-66
2021/08/28 06:45:53;;;;;;;14.43;12.93;;;;;;;16.30;95.22;96361.31;5073235;28;20428;-63
2021/08/28 06:48:18;;;;;;;13.30;11.93;;;;;;;16.27;96.06;96366.31;5073848;28;20198;-66
2021/08/28 06:50:44;;;;;;;13.90;11.43;;;;;;;16.26;94.88;96364.72;5073626;28;20651;-66
2021/08/28 06:53:09;;;;;;;13.57;12.13;;;;;;;16.49;94.42;96371.47;5073432;28;20216;-66
2021/08/28 06:55:35;;;;;;;13.47;12.17;;;;;;;16.62;93.96;96363.78;5073602;28;20526;-66
2021/08/28 06:58:00;;;;;;;12.70;11.60;;;;;;;16.68;93.50;96367.22;5073623;28;20170;-62
2021/08/28 07:00:25;;;;;;;12.20;11.00;;;;;;;16.75;92.60;96363.28;5073389;28;20169;-63
2021/08/28 07:02:51;;;;;;;12.67;11.37;;;;;;;16.71;93.37;96364.84;5057802;28;20203;-62
2021/08/28 07:05:16;;;;;;;12.07;10.93;;;;;;;16.82;93.43;96363.00;5073776;28;20188;-66
2021/08/28 07:07:42;;;;;;;12.30;11.10;;;;;;;16.92;93.27;96360.38;5072154;28;20240;-62
2021/08/28 07:10:08;;;;;;;12.53;11.20;;;;;;;17.13;92.59;96357.44;5073560;28;20171;-62
2021/08/28 07:12:34;;;;;;;12.60;11.50;;;;;;;16.95;91.97;96355.31;5073521;28;20577;-66
2021/08/28 07:14:59;;;;;;;11.67;10.67;;;;;;;16.97;91.95;96358.50;5072989;28;20427;-65
2021/08/28 07:17:25;;;;;;;10.30;9.30;;;;;;;17.20;92.31;96346.53;5072743;28;20174;-65
2021/08/28 07:19:50;;;;;;;9.50;8.70;;;;;;;17.45;90.87;96355.25;5073614;28;20257;-62
2021/08/28 07:22:15;;;;;;;9.40;8.60;;;;;;;17.53;89.96;96348.66;5073365;28;20195;-66
2021/08/28 07:24:41;;;;;;;10.27;9.40;;;;;;;17.62;89.09;96349.69;5072809;28;20562;-63
2021/08/28 07:27:06;;;;;;;7.87;7.17;;;;;;;17.66;89.30;96348.09;5073398;28;20198;-63
2021/08/28 07:29:32;;;;;;;6.63;6.13;;;;;;;17.73;88.90;96348.59;5073256;28;20173;-68
2021/08/28 07:31:57;;;;;;;7.80;7.10;;;;;;;17.98;87.16;96339.72;5055921;28;20619;-66
2021/08/28 07:34:23;;;;;;;6.70;6.20;;;;;;;18.18;86.82;96337.78;5052699;28;20194;-62
2021/08/28 07:36:48;;;;;;;6.83;6.13;;;;;;;18.21;85.62;96345.19;5057236;28;20166;-61
2021/08/28 07:39:13;;;;;;;6.77;6.13;;;;;;;17.95;83.50;96348.25;5057460;28;20167;-62
2021/08/28 07:41:39;;;;;;;6.53;5.83;;;;;;;18.06;84.55;96344.47;5057117;28;20278;-61
2021/08/28 07:44:04;;;;;;;6.00;5.50;;;;;;;18.09;83.83;96343.94;5056769;28;20195;-62
2021/08/28 07:46:30;;;;;;;6.47;5.97;;;;;;;18.19;82.33;96344.66;5066313;28;20174;-61
2021/08/28 07:48:55;;;;;;;6.80;5.50;;;;;;;18.30;82.64;96353.38;5076977;28;20220;-61
2021/08/28 07:51:20;;;;;;;8.07;7.37;;;;;;;17.86;82.31;96349.88;5077148;28;20173;-61
2021/08/28 07:53:46;;;;;;;7.47;6.77;;;;;;;17.55;85.63;96351.03;5076699;28;20246;-61
2021/08/28 07:56:11;;;;;;;7.30;6.60;;;;;;;17.22;86.92;96352.38;5077102;28;20660;-61
2021/08/28 07:58:37;;;;;;;6.17;5.60;;;;;;;17.37;86.74;96360.34;5077157;28;20202;-61
2021/08/28 08:01:02;;;;;;;5.03;4.63;;;;;;;17.52;84.48;96354.22;5070070;28;20666;-61
2021/08/28 08:03:27;;;;;;;6.07;5.40;;;;;;;17.61;84.95;96369.34;5066035;28;20171;-61
2021/08/28 08:05:53;;;;;;;5.97;5.47;;;;;;;17.70;83.15;96369.59;5076800;28;20664;-61
2021/08/28 08:08:18;;;;;;;5.53;5.10;;;;;;;17.79;82.47;96366.09;5076860;28;20689;-61
2021/08/28 08:10:43;;;;;;;6.20;5.67;;;;;;;17.85;82.75;96372.19;5076912;28;20163;-62
2021/08/28 08:13:09;;;;;;;6.30;5.67;;;;;;;17.89;82.61;96370.59;5076347;28;20249;-61
2021/08/28 08:15:34;;;;;;;4.83;4.50;;;;;;;17.89;83.87;96375.91;5075847;28;20202;-60
2021/08/28 08:18:00;;;;;;;5.10;4.70;;;;;;;17.86;83.30;96381.78;5076733;28;20167;-61
2021/08/28 08:20:25;;;;;;;5.20;4.77;;;;;;;17.76;82.81;96377.28;5076545;28;20254;-61
2021/08/28 08:22:52;;;;;;;4.50;4.10;;;;;;;17.95;81.88;96372.19;5073607;28;20181;-61
2021/08/28 08:25:17;;;;;;;4.43;4.03;;;;;;;18.18;82.41;96374.22;5072788;28;20206;-61
2021/08/28 08:27:43;;;;;;;4.90;4.40;;;;;;;18.14;81.87;96371.31;5072894;28;20409;-61
2021/08/28 08:30:29;;;;;;;4.17;3.77;;;;;;;18.22;80.74;96373.41;5068310;28;20175;-61
2021/08/28 08:32:54;;;;;;;3.77;3.50;;;;;;;18.37;79.95;96360.00;5070011;28;20224;-61
2021/08/28 08:35:20;;;;;;;3.50;3.30;;;;;;;18.27;80.33;96377.88;5069712;28;20460;-61
2021/08/28 08:37:45;;;;;;;4.00;3.67;;;;;;;18.22;81.27;96372.59;5070272;28;20183;-61
2021/08/28 08:40:11;;;;;;;3.50;3.20;;;;;;;18.13;80.26;96366.25;5070614;28;20726;-61
2021/08/28 08:42:37;;;;;;;4.00;3.70;;;;;;;18.12;79.94;96365.44;5069735;28;20194;-61
2021/08/28 08:45:06;;;;;;;3.67;3.23;;;;;;;18.16;79.29;96374.50;5070194;28;20555;-61
2021/08/28 08:47:35;;;;;;;4.20;3.90;;;;;;;17.77;83.29;96378.88;5068698;28;20416;-65
2021/08/28 08:50:01;;;;;;;4.03;3.73;;;;;;;17.70;82.78;96374.91;5070005;28;20576;-65
2021/08/28 08:52:29;;;;;;;3.67;3.10;;;;;;;17.73;83.71;96380.50;5069987;28;20413;-70
2021/08/28 08:54:56;;;;;;;3.40;3.20;;;;;;;17.73;84.07;96379.69;5069428;28;20186;-65
2021/08/28 08:57:21;;;;;;;4.13;3.50;;;;;;;17.83;84.67;96385.75;5069786;28;20418;-65
2021/08/28 08:59:47;;;;;;;4.13;3.83;;;;;;;17.90;84.73;96382.84;5073418;28;20469;-65
2021/08/28 09:02:12;;;;;;;5.17;4.70;;;;;;;17.87;84.12;96378.84;5090099;28;20209;-64
2021/08/28 09:04:38;;;;;;;5.63;5.23;;;;;;;17.88;84.79;96385.75;5090992;28;20206;-65
2021/08/28 09:07:04;;;;;;;6.00;5.50;;;;;;;18.01;84.35;96385.19;5094050;28;20178;-65
2021/08/28 09:09:29;;;;;;;5.80;5.33;;;;;;;18.04;83.52;96383.84;5080711;28;20183;-65
2021/08/28 09:12:01;;;;;;;5.07;4.67;;;;;;;18.22;83.66;96383.25;5055433;28;20402;-65
2021/08/28 09:14:27;;;;;;;5.13;4.73;;;;;;;18.35;83.26;96385.31;5055182;28;20192;-63
2021/08/28 09:16:53;;;;;;;6.20;5.60;;;;;;;18.40;82.77;96385.28;5055594;28;20403;-65
2021/08/28 09:19:20;;;;;;;5.90;5.40;;;;;;;18.42;82.69;96388.50;5057982;28;20974;-61
2021/08/28 09:21:45;;;;;;;5.90;5.40;;;;;;;18.31;82.35;96393.06;5072250;28;20191;-64
2021/08/28 09:24:13;;;;;;;4.63;4.33;;;;;;;18.13;82.53;96391.00;5074737;28;20467;-65
2021/08/28 09:26:39;;;;;;;4.43;4.10;;;;;;;18.23;81.47;96390.13;5075540;28;20174;-64
2021/08/28 09:29:08;;;;;;;4.60;3.73;;;;;;;18.32;81.39;96391.97;5069241;28;20426;-69
2021/08/28 09:31:47;;;;;;;4.63;4.23;;;;;;;18.31;82.80;96393.06;5059206;28;20420;-66
2021/08/28 09:34:28;;;;;;;4.53;4.13;;;;;;;18.40;81.76;96401.25;5055989;28;20521;-62
2021/08/28 09:37:04;;;;;;;4.50;4.20;;;;;;;18.35;82.03;96402.06;5075332;28;20798;-68
2021/08/28 09:39:36;;;;;;;4.70;4.40;;;;;;;18.30;82.08;96395.97;5070204;28;20420;-67
2021/08/28 09:42:02;;;;;;;4.97;4.57;;;;;;;18.18;82.30;96398.94;5073639;28;20449;-68
2021/08/28 09:44:27;;;;;;;4.03;3.73;;;;;;;18.30;82.73;96398.63;5074740;28;20531;-67
2021/08/28 09:47:07;;;;;;;5.30;4.03;;;;;;;18.12;81.74;96412.53;5068782;28;20912;-67
2021/08/28 09:49:33;;;;;;;3.83;3.53;;;;;;;18.06;83.27;96410.97;5054839;28;20579;-67
2021/08/28 09:51:59;;;;;;;3.10;2.90;;;;;;;18.18;83.69;96412.25;5054867;28;20493;-66
2021/08/28 09:54:24;;;;;;;2.80;2.60;;;;;;;18.11;85.20;96410.94;5056744;28;20509;-67
2021/08/28 09:57:02;;;;;;;3.13;2.93;;;;;;;18.08;85.49;96411.50;5055646;28;20167;-67
2021/08/28 09:59:28;;;;;;;3.53;3.33;;;;;;;18.14;85.16;96405.88;5070334;28;20179;-74
2021/08/28 10:01:53;;;;;;;3.60;3.30;;;;;;;18.18;84.21;96412.25;5073058;28;20510;-75
2021/08/28 10:04:18;;;;;;;4.00;3.03;;;;;;;18.15;84.91;96407.47;5073417;28;20240;-69
2021/08/28 10:06:48;;;;;;;4.70;3.60;;;;;;;18.21;84.81;96411.69;5071864;28;20261;-63
2021/08/28 10:09:16;;;;;;;3.70;3.40;;;;;;;18.16;84.71;96405.59;5054593;28;20179;-67
2021/08/28 10:11:52;;;;;;;3.50;3.30;;;;;;;18.09;85.90;96408.56;5054692;28;20398;-63
2021/08/28 10:14:20;;;;;;;3.50;3.30;;;;;;;18.10;85.53;96409.38;5053913;28;20500;-67
2021/08/28 10:16:47;;;;;;;3.77;3.47;;;;;;;18.08;86.18;96406.19;5058147;28;20414;-67
2021/08/28 10:19:15;;;;;;;3.53;3.33;;;;;;;18.03;87.26;96411.50;5054288;28;20942;-63
2021/08/28 10:21:46;;;;;;;4.03;3.70;;;;;;;18.04;86.07;96405.94;5054320;28;20571;-67
2021/08/28 10:24:15;;;;;;;5.57;4.37;;;;;;;18.14;86.27;96403.22;5053760;28;20414;-67
2021/08/28 10:26:43;;;;;;;5.00;4.70;;;;;;;18.19;86.62;96402.41;5054244;28;20440;-65
2021/08/28 10:29:08;;;;;;;4.10;3.80;;;;;;;18.26;86.35;96408.25;5054561;28;20445;-65
2021/08/28 10:31:34;;;;;;;3.53;3.33;;;;;;;18.18;85.95;96403.47;5054050;28;20434;-64
2021/08/28 10:34:00;;;;;;;3.83;3.53;;;;;;;18.13;85.95;96398.19;5053779;28;20177;-64
2021/08/28 10:36:26;;;;;;;2.60;2.40;;;;;;;18.12;85.66;96401.88;5055167;28;20214;-63
2021/08/28 10:38:53;;;;;;;2.60;2.50;;;;;;;18.05;84.54;96410.16;5054059;28;20229;-63
2021/08/28 10:41:21;;;;;;;3.03;2.30;;;;;;;17.96;85.69;96411.78;5053922;28;20219;-64
2021/08/28 10:43:47;;;;;;;3.13;2.93;;;;;;;17.88;86.42;96408.91;5057243;28;20417;-64
2021/08/28 10:46:20;;;;;;;3.30;3.00;;;;;;;17.93;87.21;96412.34;5073661;28;20420;-63
2021/08/28 10:48:54;;;;;;;3.40;3.20;;;;;;;17.72;85.83;96410.00;5073749;28;20429;-65
2021/08/28 10:51:36;;;;;;;3.60;3.40;;;;;;;17.86;86.61;96401.19;5068788;28;20512;-64
2021/08/28 10:54:08;;;;;;;3.50;3.30;;;;;;;17.95;88.32;96410.22;5073383;28;20458;-64
2021/08/28 10:56:54;;;;;;;3.70;3.40;;;;;;;18.08;89.21;96400.84;5073610;28;20413;-64
2021/08/28 10:59:34;;;;;;;4.70;4.40;;;;;;;18.21;88.47;96405.56;5073755;28;20428;-64
2021/08/28 11:02:08;;;;;;;3.90;3.60;;;;;;;18.15;88.10;96404.03;5073598;28;21013;-64
2021/08/28 11:04:39;;;;;;;4.20;3.90;;;;;;;18.09;87.90;96403.25;5068236;28;20430;-66
2021/08/28 11:07:16;;;;;;;4.10;3.80;;;;;;;18.00;87.63;96410.19;5073347;28;20425;-68
2021/08/28 11:10:10;;;;;;;4.10;3.80;;;;;;;18.12;88.03;96410.66;5073219;28;20421;-65
2021/08/28 11:12:58;;;;;;;4.10;3.80;;;;;;;18.11;87.94;96419.72;5073242;28;20392;-66
2021/08/28 11:15:27;;;;;;;3.23;2.90;;;;;;;17.91;87.27;96413.66;5073597;28;20445;-66
2021/08/28 11:17:56;;;;;;;3.00;2.80;;;;;;;18.01;87.65;96411.78;5073524;28;20436;-65
2021/08/28 11:20:26;;;;;;;3.00;2.80;;;;;;;18.06;88.42;96416.28;5060490;28;20851;-65
2021/08/28 11:22:53;;;;;;;2.90;2.70;;;;;;;18.13;87.21;96416.78;5049564;28;20555;-66
2021/08/28 11:25:25;;;;;;;3.30;3.03;;;;;;;17.97;88.06;96416.03;5049622;28;20449;-66
2021/08/28 11:27:55;;;;;;;2.77;2.57;;;;;;;18.04;87.94;96416.56;5052193;28;20428;-65